sensor_id;sensor_type;location;lat;lon;timestamp;P1;durP1;ratioP1;P2;durP2;ratioP2
31948;SDS011;18481;49.532;18.334;2023-03-04T07:14:19;51.20;;;24.30;;
31948;SDS011;18481;49.532;18.334;2023-03-04T07:16:45;47.87;;;22.43;;
31948;SDS011;18481;49.532;18.334;2023-03-04T07:19:11;53.83;;;25.43;;
31948;SDS011;18481;49.532;18.334;2023-03-04T07:21:37;49.30;;;22.23;;
31948;SDS011;18481;49.532;18.334;2023-03-04T07:24:03;44.47;;;21.80;;
31948;SDS011;18481;49.532;18.334;2023-03-04T07:26:29;50.60;;;23.97;;
31948;SDS011;18481;49.532;18.334;2023-03-04T07:28:55;43.83;;;22.17;;
31948;SDS011;18481;49.532;18.334;2023-03-04T07:31:24;48.23;;;24.00;;
31948;SDS011;18481;49.532;18.334;2023-03-04T07:33:58;39.13;;;20.67;;
31948;SDS011;18481;49.532;18.334;2023-03-04T07:36:24;44.97;;;22.73;;
31948;SDS011;18481;49.532;18.334;2023-03-04T07:38:51;44.80;;;22.40;;
31948;SDS011;18481;49.532;18.334;2023-03-04T07:41:19;47.80;;;23.27;;
31948;SDS011;18481;49.532;18.334;2023-03-04T07:43:45;42.23;;;21.97;;
31948;SDS011;18481;49.532;18.334;2023-03-04T07:46:11;45.07;;;23.20;;
31948;SDS011;18481;49.532;18.334;2023-03-04T07:48:37;44.43;;;22.83;;
31948;SDS011;18481;49.532;18.334;2023-03-04T07:53:30;46.80;;;23.63;;
31948;SDS011;18481;49.532;18.334;2023-03-04T07:55:56;50.40;;;24.30;;
31948;SDS011;18481;49.532;18.334;2023-03-04T07:58:23;52.70;;;22.90;;
31948;SDS011;18481;49.532;18.334;2023-03-04T08:00:49;49.17;;;24.13;;
31948;SDS011;18481;49.532;18.334;2023-03-04T08:03:15;47.30;;;22.03;;
31948;SDS011;18481;49.532;18.334;2023-03-04T08:05:41;44.07;;;21.57;;
31948;SDS011;18481;49.532;18.334;2023-03-04T08:08:08;43.93;;;22.20;;
31948;SDS011;18481;49.532;18.334;2023-03-04T08:10:34;42.77;;;21.93;;
31948;SDS011;18481;49.532;18.334;2023-03-04T08:13:00;46.83;;;22.53;;
31948;SDS011;18481;49.532;18.334;2023-03-04T08:15:26;42.40;;;22.80;;
31948;SDS011;18481;49.532;18.334;2023-03-04T08:17:52;47.10;;;23.33;;
31948;SDS011;18481;49.532;18.334;2023-03-04T08:20:18;43.47;;;22.40;;
31948;SDS011;18481;49.532;18.334;2023-03-04T08:22:44;44.97;;;22.70;;
31948;SDS011;18481;49.532;18.334;2023-03-04T08:25:10;46.83;;;24.07;;
31948;SDS011;18481;49.532;18.334;2023-03-04T08:27:36;45.17;;;23.63;;
31948;SDS011;18481;49.532;18.334;2023-03-04T08:30:03;45.53;;;23.43;;
31948;SDS011;18481;49.532;18.334;2023-03-04T08:32:30;43.30;;;22.23;;
31948;SDS011;18481;49.532;18.334;2023-03-04T08:34:56;43.47;;;22.63;;
31948;SDS011;18481;49.532;18.334;2023-03-04T08:37:22;37.70;;;18.83;;
31948;SDS011;18481;49.532;18.334;2023-03-04T08:39:48;39.10;;;20.30;;
31948;SDS011;18481;49.532;18.334;2023-03-04T08:42:14;38.93;;;21.33;;
31948;SDS011;18481;49.532;18.334;2023-03-04T08:44:40;43.50;;;23.13;;
31948;SDS011;18481;49.532;18.334;2023-03-04T08:47:06;43.93;;;23.03;;
31948;SDS011;18481;49.532;18.334;2023-03-04T08:49:34;39.10;;;20.90;;
31948;SDS011;18481;49.532;18.334;2023-03-04T08:52:00;38.53;;;21.10;;
31948;SDS011;18481;49.532;18.334;2023-03-04T08:54:26;38.07;;;20.70;;
31948;SDS011;18481;49.532;18.334;2023-03-04T08:56:52;39.33;;;21.30;;
31948;SDS011;18481;49.532;18.334;2023-03-04T08:59:18;39.83;;;20.63;;
31948;SDS011;18481;49.532;18.334;2023-03-04T09:01:44;39.10;;;21.47;;
31948;SDS011;18481;49.532;18.334;2023-03-04T09:04:10;41.50;;;22.30;;
31948;SDS011;18481;49.532;18.334;2023-03-04T09:06:36;44.20;;;21.13;;
31948;SDS011;18481;49.532;18.334;2023-03-04T09:09:02;44.27;;;22.80;;
31948;SDS011;18481;49.532;18.334;2023-03-04T09:11:29;41.17;;;23.03;;
31948;SDS011;18481;49.532;18.334;2023-03-04T09:13:55;43.20;;;23.17;;
31948;SDS011;18481;49.532;18.334;2023-03-04T09:16:21;42.23;;;22.93;;
31948;SDS011;18481;49.532;18.334;2023-03-04T09:18:47;41.93;;;22.93;;
31948;SDS011;18481;49.532;18.334;2023-03-04T09:21:13;38.03;;;20.97;;
31948;SDS011;18481;49.532;18.334;2023-03-04T09:23:39;41.33;;;21.80;;
31948;SDS011;18481;49.532;18.334;2023-03-04T09:26:19;42.40;;;22.63;;
31948;SDS011;18481;49.532;18.334;2023-03-04T09:28:48;42.40;;;22.27;;
31948;SDS011;18481;49.532;18.334;2023-03-04T09:31:14;40.40;;;21.27;;
31948;SDS011;18481;49.532;18.334;2023-03-04T09:33:40;42.07;;;22.90;;
31948;SDS011;18481;49.532;18.334;2023-03-04T09:36:10;41.17;;;21.37;;
31948;SDS011;18481;49.532;18.334;2023-03-04T09:38:37;42.73;;;22.73;;
31948;SDS011;18481;49.532;18.334;2023-03-04T09:41:05;42.43;;;23.70;;
31948;SDS011;18481;49.532;18.334;2023-03-04T09:43:32;40.77;;;21.93;;
31948;SDS011;18481;49.532;18.334;2023-03-04T09:45:59;43.60;;;23.30;;
31948;SDS011;18481;49.532;18.334;2023-03-04T09:48:27;41.03;;;23.47;;
31948;SDS011;18481;49.532;18.334;2023-03-04T09:51:03;39.13;;;23.00;;
31948;SDS011;18481;49.532;18.334;2023-03-04T09:56:20;43.27;;;24.70;;
31948;SDS011;18481;49.532;18.334;2023-03-04T10:01:49;44.97;;;24.17;;
31948;SDS011;18481;49.532;18.334;2023-03-04T10:04:21;44.77;;;23.63;;
31948;SDS011;18481;49.532;18.334;2023-03-04T10:06:51;44.30;;;23.40;;
31948;SDS011;18481;49.532;18.334;2023-03-04T10:09:29;48.37;;;23.53;;
31948;SDS011;18481;49.532;18.334;2023-03-04T10:12:00;47.57;;;24.20;;
31948;SDS011;18481;49.532;18.334;2023-03-04T10:14:32;40.00;;;21.93;;
31948;SDS011;18481;49.532;18.334;2023-03-04T10:17:01;42.63;;;22.40;;
31948;SDS011;18481;49.532;18.334;2023-03-04T10:22:38;45.97;;;23.63;;
31948;SDS011;18481;49.532;18.334;2023-03-04T10:27:54;46.13;;;23.83;;
31948;SDS011;18481;49.532;18.334;2023-03-04T10:32:53;45.90;;;22.53;;
31948;SDS011;18481;49.532;18.334;2023-03-04T10:35:19;45.53;;;23.13;;
31948;SDS011;18481;49.532;18.334;2023-03-04T10:37:48;35.07;;;20.30;;
31948;SDS011;18481;49.532;18.334;2023-03-04T10:40:22;42.73;;;22.10;;
31948;SDS011;18481;49.532;18.334;2023-03-04T10:42:48;43.83;;;24.63;;
31948;SDS011;18481;49.532;18.334;2023-03-04T10:45:19;41.87;;;22.17;;
31948;SDS011;18481;49.532;18.334;2023-03-04T10:47:50;42.93;;;22.57;;
31948;SDS011;18481;49.532;18.334;2023-03-04T10:50:20;43.90;;;22.67;;
31948;SDS011;18481;49.532;18.334;2023-03-04T10:52:47;43.07;;;22.33;;
31948;SDS011;18481;49.532;18.334;2023-03-04T10:58:05;41.23;;;22.03;;
31948;SDS011;18481;49.532;18.334;2023-03-04T11:00:32;39.90;;;22.57;;
31948;SDS011;18481;49.532;18.334;2023-03-04T11:05:43;40.33;;;21.77;;
31948;SDS011;18481;49.532;18.334;2023-03-04T11:08:15;42.83;;;21.93;;
31948;SDS011;18481;49.532;18.334;2023-03-04T11:10:42;42.03;;;22.70;;
31948;SDS011;18481;49.532;18.334;2023-03-04T11:15:51;39.40;;;21.10;;
31948;SDS011;18481;49.532;18.334;2023-03-04T11:20:51;44.73;;;23.40;;
31948;SDS011;18481;49.532;18.334;2023-03-04T11:23:31;39.93;;;20.27;;
31948;SDS011;18481;49.532;18.334;2023-03-04T11:26:13;39.33;;;20.43;;
31948;SDS011;18481;49.532;18.334;2023-03-04T11:31:17;36.30;;;20.07;;
31948;SDS011;18481;49.532;18.334;2023-03-04T11:33:46;39.27;;;22.37;;
31948;SDS011;18481;49.532;18.334;2023-03-04T11:38:42;40.17;;;20.63;;
31948;SDS011;18481;49.532;18.334;2023-03-04T11:41:13;37.90;;;20.80;;
31948;SDS011;18481;49.532;18.334;2023-03-04T11:43:41;36.23;;;19.93;;
31948;SDS011;18481;49.532;18.334;2023-03-04T11:46:16;42.13;;;21.20;;
31948;SDS011;18481;49.532;18.334;2023-03-04T11:53:57;37.00;;;20.03;;
31948;SDS011;18481;49.532;18.334;2023-03-04T11:56:29;41.67;;;21.67;;
31948;SDS011;18481;49.532;18.334;2023-03-04T12:04:13;46.63;;;23.93;;
31948;SDS011;18481;49.532;18.334;2023-03-04T12:09:20;45.03;;;23.67;;
31948;SDS011;18481;49.532;18.334;2023-03-04T12:12:00;42.27;;;22.00;;
31948;SDS011;18481;49.532;18.334;2023-03-04T12:17:16;44.27;;;21.60;;
31948;SDS011;18481;49.532;18.334;2023-03-04T12:22:45;42.67;;;19.60;;
31948;SDS011;18481;49.532;18.334;2023-03-04T12:35:52;35.57;;;18.57;;
31948;SDS011;18481;49.532;18.334;2023-03-04T12:54:42;34.47;;;16.40;;
31948;SDS011;18481;49.532;18.334;2023-03-04T13:02:31;31.83;;;15.90;;
31948;SDS011;18481;49.532;18.334;2023-03-04T13:07:32;34.63;;;17.20;;
31948;SDS011;18481;49.532;18.334;2023-03-04T13:10:04;34.87;;;17.00;;
31948;SDS011;18481;49.532;18.334;2023-03-04T13:15:32;35.97;;;17.80;;
31948;SDS011;18481;49.532;18.334;2023-03-04T13:21:33;32.20;;;18.00;;
31948;SDS011;18481;49.532;18.334;2023-03-04T13:23:53;39.10;;;20.00;;
31948;SDS011;18481;49.532;18.334;2023-03-04T13:26:22;52.80;;;27.33;;
31948;SDS011;18481;49.532;18.334;2023-03-04T13:28:53;39.27;;;22.03;;
31948;SDS011;18481;49.532;18.334;2023-03-04T13:31:20;37.33;;;20.83;;
31948;SDS011;18481;49.532;18.334;2023-03-04T13:33:49;30.20;;;16.70;;
31948;SDS011;18481;49.532;18.334;2023-03-04T13:41:52;31.57;;;17.27;;
31948;SDS011;18481;49.532;18.334;2023-03-04T13:44:30;39.60;;;19.87;;
31948;SDS011;18481;49.532;18.334;2023-03-04T13:46:56;43.87;;;24.00;;
31948;SDS011;18481;49.532;18.334;2023-03-04T13:49:22;43.80;;;24.27;;
31948;SDS011;18481;49.532;18.334;2023-03-04T13:51:49;41.93;;;22.07;;
31948;SDS011;18481;49.532;18.334;2023-03-04T13:56:51;51.10;;;24.70;;
31948;SDS011;18481;49.532;18.334;2023-03-04T13:59:40;53.23;;;26.37;;
31948;SDS011;18481;49.532;18.334;2023-03-04T14:02:14;33.10;;;18.87;;
31948;SDS011;18481;49.532;18.334;2023-03-04T14:04:46;41.53;;;21.17;;
31948;SDS011;18481;49.532;18.334;2023-03-04T14:07:27;42.37;;;20.83;;
31948;SDS011;18481;49.532;18.334;2023-03-04T14:09:55;52.23;;;25.40;;
31948;SDS011;18481;49.532;18.334;2023-03-04T14:12:21;35.53;;;18.17;;
31948;SDS011;18481;49.532;18.334;2023-03-04T14:14:49;37.73;;;18.17;;
31948;SDS011;18481;49.532;18.334;2023-03-04T14:17:34;34.97;;;18.40;;
31948;SDS011;18481;49.532;18.334;2023-03-04T14:20:01;37.17;;;19.13;;
31948;SDS011;18481;49.532;18.334;2023-03-04T14:22:30;37.70;;;19.80;;
31948;SDS011;18481;49.532;18.334;2023-03-04T14:27:23;45.93;;;23.07;;
31948;SDS011;18481;49.532;18.334;2023-03-04T14:29:56;44.53;;;22.50;;
31948;SDS011;18481;49.532;18.334;2023-03-04T14:32:22;44.57;;;23.83;;
31948;SDS011;18481;49.532;18.334;2023-03-04T14:34:48;54.67;;;25.60;;
31948;SDS011;18481;49.532;18.334;2023-03-04T14:37:22;55.27;;;27.10;;
31948;SDS011;18481;49.532;18.334;2023-03-04T14:39:49;49.43;;;26.03;;
31948;SDS011;18481;49.532;18.334;2023-03-04T14:42:16;46.07;;;23.77;;
31948;SDS011;18481;49.532;18.334;2023-03-04T14:44:44;46.37;;;24.80;;
31948;SDS011;18481;49.532;18.334;2023-03-04T14:47:18;37.67;;;21.10;;
31948;SDS011;18481;49.532;18.334;2023-03-04T14:49:46;53.80;;;25.87;;
31948;SDS011;18481;49.532;18.334;2023-03-04T14:55:01;40.03;;;21.13;;
31948;SDS011;18481;49.532;18.334;2023-03-04T14:57:30;41.43;;;23.13;;
31948;SDS011;18481;49.532;18.334;2023-03-04T15:00:12;40.63;;;22.00;;
31948;SDS011;18481;49.532;18.334;2023-03-04T15:02:39;43.43;;;23.63;;
31948;SDS011;18481;49.532;18.334;2023-03-04T15:05:09;44.13;;;23.40;;
31948;SDS011;18481;49.532;18.334;2023-03-04T15:07:36;42.63;;;22.43;;
31948;SDS011;18481;49.532;18.334;2023-03-04T15:10:04;48.23;;;25.67;;
31948;SDS011;18481;49.532;18.334;2023-03-04T15:12:31;44.53;;;25.23;;
31948;SDS011;18481;49.532;18.334;2023-03-04T15:15:03;43.73;;;23.23;;
31948;SDS011;18481;49.532;18.334;2023-03-04T15:22:28;48.97;;;25.50;;
31948;SDS011;18481;49.532;18.334;2023-03-04T15:24:54;49.30;;;24.30;;
31948;SDS011;18481;49.532;18.334;2023-03-04T15:27:21;41.40;;;23.37;;
31948;SDS011;18481;49.532;18.334;2023-03-04T15:29:48;45.67;;;24.20;;
31948;SDS011;18481;49.532;18.334;2023-03-04T15:32:14;38.80;;;22.50;;
31948;SDS011;18481;49.532;18.334;2023-03-04T15:34:40;43.40;;;23.23;;
31948;SDS011;18481;49.532;18.334;2023-03-04T15:37:08;41.90;;;22.87;;
31948;SDS011;18481;49.532;18.334;2023-03-04T15:39:39;41.87;;;22.97;;
31948;SDS011;18481;49.532;18.334;2023-03-04T15:42:07;41.93;;;22.43;;
31948;SDS011;18481;49.532;18.334;2023-03-04T15:44:34;39.20;;;22.70;;
31948;SDS011;18481;49.532;18.334;2023-03-04T15:47:00;40.83;;;23.33;;
31948;SDS011;18481;49.532;18.334;2023-03-04T15:49:26;40.00;;;22.20;;
31948;SDS011;18481;49.532;18.334;2023-03-04T15:51:53;37.43;;;21.90;;
31948;SDS011;18481;49.532;18.334;2023-03-04T15:54:19;45.43;;;24.20;;
31948;SDS011;18481;49.532;18.334;2023-03-04T15:56:47;43.10;;;24.67;;
31948;SDS011;18481;49.532;18.334;2023-03-04T15:59:13;41.23;;;21.87;;
31948;SDS011;18481;49.532;18.334;2023-03-04T16:01:40;52.90;;;27.43;;
31948;SDS011;18481;49.532;18.334;2023-03-04T16:04:09;46.17;;;23.43;;
31948;SDS011;18481;49.532;18.334;2023-03-04T16:06:36;47.90;;;24.10;;
31948;SDS011;18481;49.532;18.334;2023-03-04T16:09:02;47.43;;;25.20;;
31948;SDS011;18481;49.532;18.334;2023-03-04T16:11:29;50.60;;;26.50;;
31948;SDS011;18481;49.532;18.334;2023-03-04T16:13:55;56.03;;;28.40;;
31948;SDS011;18481;49.532;18.334;2023-03-04T16:16:21;46.37;;;25.03;;
31948;SDS011;18481;49.532;18.334;2023-03-04T16:18:47;50.70;;;25.67;;
31948;SDS011;18481;49.532;18.334;2023-03-04T16:21:15;37.90;;;20.83;;
31948;SDS011;18481;49.532;18.334;2023-03-04T16:23:42;52.97;;;25.87;;
31948;SDS011;18481;49.532;18.334;2023-03-04T16:26:27;41.87;;;22.87;;
31948;SDS011;18481;49.532;18.334;2023-03-04T16:28:53;51.00;;;24.07;;
31948;SDS011;18481;49.532;18.334;2023-03-04T16:31:20;46.67;;;23.10;;
31948;SDS011;18481;49.532;18.334;2023-03-04T16:33:46;50.23;;;25.27;;
31948;SDS011;18481;49.532;18.334;2023-03-04T16:36:17;59.50;;;28.30;;
31948;SDS011;18481;49.532;18.334;2023-03-04T16:38:44;68.83;;;32.43;;
31948;SDS011;18481;49.532;18.334;2023-03-04T16:41:12;54.63;;;27.10;;
31948;SDS011;18481;49.532;18.334;2023-03-04T16:43:39;54.80;;;27.87;;
31948;SDS011;18481;49.532;18.334;2023-03-04T16:46:05;45.07;;;23.90;;
31948;SDS011;18481;49.532;18.334;2023-03-04T16:48:31;41.87;;;23.17;;
31948;SDS011;18481;49.532;18.334;2023-03-04T16:50:58;45.73;;;23.87;;
31948;SDS011;18481;49.532;18.334;2023-03-04T16:53:31;38.27;;;21.67;;
31948;SDS011;18481;49.532;18.334;2023-03-04T16:55:59;43.13;;;22.53;;
31948;SDS011;18481;49.532;18.334;2023-03-04T16:58:26;43.30;;;24.47;;
31948;SDS011;18481;49.532;18.334;2023-03-04T17:00:52;37.97;;;21.07;;
31948;SDS011;18481;49.532;18.334;2023-03-04T17:03:18;38.47;;;21.33;;
31948;SDS011;18481;49.532;18.334;2023-03-04T17:05:44;39.50;;;21.87;;
31948;SDS011;18481;49.532;18.334;2023-03-04T17:08:11;36.67;;;21.07;;
31948;SDS011;18481;49.532;18.334;2023-03-04T17:10:37;39.03;;;21.97;;
31948;SDS011;18481;49.532;18.334;2023-03-04T17:13:04;41.63;;;23.00;;
31948;SDS011;18481;49.532;18.334;2023-03-04T17:15:30;43.73;;;23.60;;
31948;SDS011;18481;49.532;18.334;2023-03-04T17:17:56;45.90;;;23.83;;
31948;SDS011;18481;49.532;18.334;2023-03-04T17:20:22;44.10;;;25.13;;
31948;SDS011;18481;49.532;18.334;2023-03-04T17:22:48;46.80;;;24.90;;
31948;SDS011;18481;49.532;18.334;2023-03-04T17:25:14;39.90;;;21.80;;
31948;SDS011;18481;49.532;18.334;2023-03-04T17:27:40;39.70;;;22.93;;
31948;SDS011;18481;49.532;18.334;2023-03-04T17:30:07;44.77;;;22.70;;
31948;SDS011;18481;49.532;18.334;2023-03-04T17:32:33;44.50;;;23.80;;
31948;SDS011;18481;49.532;18.334;2023-03-04T17:34:59;49.30;;;25.93;;
31948;SDS011;18481;49.532;18.334;2023-03-04T17:37:25;48.50;;;24.17;;
31948;SDS011;18481;49.532;18.334;2023-03-04T17:39:51;44.87;;;24.47;;
31948;SDS011;18481;49.532;18.334;2023-03-04T17:42:18;44.70;;;23.43;;
31948;SDS011;18481;49.532;18.334;2023-03-04T17:44:44;53.53;;;27.27;;
31948;SDS011;18481;49.532;18.334;2023-03-04T17:47:10;47.03;;;24.20;;
31948;SDS011;18481;49.532;18.334;2023-03-04T17:49:36;49.37;;;25.17;;
31948;SDS011;18481;49.532;18.334;2023-03-04T17:52:02;56.27;;;26.60;;
31948;SDS011;18481;49.532;18.334;2023-03-04T17:54:29;79.57;;;33.00;;
31948;SDS011;18481;49.532;18.334;2023-03-04T17:56:55;53.23;;;26.37;;
31948;SDS011;18481;49.532;18.334;2023-03-04T17:59:21;59.97;;;28.57;;
31948;SDS011;18481;49.532;18.334;2023-03-04T18:01:47;72.97;;;33.27;;
31948;SDS011;18481;49.532;18.334;2023-03-04T18:04:14;62.07;;;27.77;;
31948;SDS011;18481;49.532;18.334;2023-03-04T18:06:40;51.17;;;26.67;;
31948;SDS011;18481;49.532;18.334;2023-03-04T18:09:07;40.43;;;22.40;;
31948;SDS011;18481;49.532;18.334;2023-03-04T18:11:34;37.70;;;19.03;;
31948;SDS011;18481;49.532;18.334;2023-03-04T18:14:01;30.33;;;17.83;;
31948;SDS011;18481;49.532;18.334;2023-03-04T18:16:27;32.47;;;17.70;;
31948;SDS011;18481;49.532;18.334;2023-03-04T18:18:54;38.70;;;20.23;;
31948;SDS011;18481;49.532;18.334;2023-03-04T18:21:22;42.80;;;21.83;;
31948;SDS011;18481;49.532;18.334;2023-03-04T18:23:48;43.13;;;20.43;;
31948;SDS011;18481;49.532;18.334;2023-03-04T18:26:14;37.50;;;19.03;;
31948;SDS011;18481;49.532;18.334;2023-03-04T18:28:40;59.13;;;29.07;;
31948;SDS011;18481;49.532;18.334;2023-03-04T18:31:06;50.50;;;25.97;;
31948;SDS011;18481;49.532;18.334;2023-03-04T18:33:34;33.20;;;19.03;;
31948;SDS011;18481;49.532;18.334;2023-03-04T18:36:01;32.17;;;18.20;;
31948;SDS011;18481;49.532;18.334;2023-03-04T18:38:27;30.53;;;18.17;;
31948;SDS011;18481;49.532;18.334;2023-03-04T18:40:57;34.60;;;18.73;;
31948;SDS011;18481;49.532;18.334;2023-03-04T18:43:24;34.47;;;19.20;;
31948;SDS011;18481;49.532;18.334;2023-03-04T18:45:58;31.27;;;17.87;;
31948;SDS011;18481;49.532;18.334;2023-03-04T18:48:24;30.10;;;18.90;;
31948;SDS011;18481;49.532;18.334;2023-03-04T18:50:50;30.80;;;16.63;;
31948;SDS011;18481;49.532;18.334;2023-03-04T18:53:17;27.13;;;16.10;;
31948;SDS011;18481;49.532;18.334;2023-03-04T18:55:43;27.47;;;16.70;;
31948;SDS011;18481;49.532;18.334;2023-03-04T18:58:09;28.53;;;16.63;;
31948;SDS011;18481;49.532;18.334;2023-03-04T19:00:36;33.17;;;16.90;;
31948;SDS011;18481;49.532;18.334;2023-03-04T19:03:06;27.40;;;17.03;;
31948;SDS011;18481;49.532;18.334;2023-03-04T19:05:34;28.90;;;16.80;;
31948;SDS011;18481;49.532;18.334;2023-03-04T19:08:00;27.87;;;16.83;;
31948;SDS011;18481;49.532;18.334;2023-03-04T19:10:26;28.67;;;17.40;;
31948;SDS011;18481;49.532;18.334;2023-03-04T19:12:53;26.37;;;16.77;;
31948;SDS011;18481;49.532;18.334;2023-03-04T19:15:21;29.80;;;17.10;;
31948;SDS011;18481;49.532;18.334;2023-03-04T19:17:47;28.87;;;16.50;;
31948;SDS011;18481;49.532;18.334;2023-03-04T19:20:14;29.50;;;17.23;;
31948;SDS011;18481;49.532;18.334;2023-03-04T19:22:40;30.30;;;17.37;;
31948;SDS011;18481;49.532;18.334;2023-03-04T19:25:07;35.77;;;19.17;;
31948;SDS011;18481;49.532;18.334;2023-03-04T19:27:33;31.13;;;17.60;;
31948;SDS011;18481;49.532;18.334;2023-03-04T19:29:59;27.53;;;17.20;;
31948;SDS011;18481;49.532;18.334;2023-03-04T19:32:25;28.60;;;17.07;;
31948;SDS011;18481;49.532;18.334;2023-03-04T19:34:52;32.17;;;18.57;;
31948;SDS011;18481;49.532;18.334;2023-03-04T19:37:18;35.00;;;19.60;;
31948;SDS011;18481;49.532;18.334;2023-03-04T19:39:44;35.80;;;18.53;;
31948;SDS011;18481;49.532;18.334;2023-03-04T19:42:10;32.67;;;15.43;;
31948;SDS011;18481;49.532;18.334;2023-03-04T19:44:37;31.63;;;17.50;;
31948;SDS011;18481;49.532;18.334;2023-03-04T19:47:03;29.97;;;15.60;;
31948;SDS011;18481;49.532;18.334;2023-03-04T19:49:30;22.23;;;14.00;;
31948;SDS011;18481;49.532;18.334;2023-03-04T19:51:56;28.63;;;15.90;;
31948;SDS011;18481;49.532;18.334;2023-03-04T19:54:22;29.37;;;16.27;;
31948;SDS011;18481;49.532;18.334;2023-03-04T19:56:50;26.77;;;15.60;;
31948;SDS011;18481;49.532;18.334;2023-03-04T19:59:16;31.33;;;16.97;;
31948;SDS011;18481;49.532;18.334;2023-03-04T20:01:42;27.17;;;16.03;;
31948;SDS011;18481;49.532;18.334;2023-03-04T20:04:10;25.47;;;14.97;;
31948;SDS011;18481;49.532;18.334;2023-03-04T20:06:37;23.00;;;14.07;;
31948;SDS011;18481;49.532;18.334;2023-03-04T20:09:04;21.43;;;13.73;;
31948;SDS011;18481;49.532;18.334;2023-03-04T20:11:30;20.70;;;13.03;;
31948;SDS011;18481;49.532;18.334;2023-03-04T20:13:57;26.17;;;13.90;;
31948;SDS011;18481;49.532;18.334;2023-03-04T20:16:25;22.43;;;13.73;;
31948;SDS011;18481;49.532;18.334;2023-03-04T20:18:51;21.33;;;13.00;;
31948;SDS011;18481;49.532;18.334;2023-03-04T20:21:17;22.17;;;13.50;;
31948;SDS011;18481;49.532;18.334;2023-03-04T20:23:43;23.27;;;13.17;;
31948;SDS011;18481;49.532;18.334;2023-03-04T20:26:09;21.23;;;13.37;;
31948;SDS011;18481;49.532;18.334;2023-03-04T20:28:36;26.10;;;14.93;;
31948;SDS011;18481;49.532;18.334;2023-03-04T20:33:37;23.20;;;13.47;;
31948;SDS011;18481;49.532;18.334;2023-03-04T20:36:03;25.03;;;14.20;;
31948;SDS011;18481;49.532;18.334;2023-03-04T20:38:29;25.07;;;13.93;;
31948;SDS011;18481;49.532;18.334;2023-03-04T20:40:55;21.87;;;14.00;;
31948;SDS011;18481;49.532;18.334;2023-03-04T20:43:22;23.27;;;14.03;;
31948;SDS011;18481;49.532;18.334;2023-03-04T20:45:50;24.73;;;15.87;;
31948;SDS011;18481;49.532;18.334;2023-03-04T20:48:17;26.93;;;15.93;;
31948;SDS011;18481;49.532;18.334;2023-03-04T20:50:43;28.97;;;15.93;;
31948;SDS011;18481;49.532;18.334;2023-03-04T20:53:09;25.63;;;15.73;;
31948;SDS011;18481;49.532;18.334;2023-03-04T20:55:36;27.27;;;16.83;;
31948;SDS011;18481;49.532;18.334;2023-03-04T20:58:02;32.37;;;17.93;;
31948;SDS011;18481;49.532;18.334;2023-03-04T21:00:31;40.87;;;19.90;;
31948;SDS011;18481;49.532;18.334;2023-03-04T21:02:57;31.00;;;17.53;;
31948;SDS011;18481;49.532;18.334;2023-03-04T21:05:23;35.67;;;19.73;;
31948;SDS011;18481;49.532;18.334;2023-03-04T21:07:49;35.07;;;19.07;;
31948;SDS011;18481;49.532;18.334;2023-03-04T21:10:15;33.80;;;18.33;;
31948;SDS011;18481;49.532;18.334;2023-03-04T21:12:43;34.60;;;19.27;;
31948;SDS011;18481;49.532;18.334;2023-03-04T21:15:09;33.10;;;19.23;;
31948;SDS011;18481;49.532;18.334;2023-03-04T21:17:36;30.10;;;17.43;;
31948;SDS011;18481;49.532;18.334;2023-03-04T21:20:02;33.70;;;19.40;;
31948;SDS011;18481;49.532;18.334;2023-03-04T21:22:28;29.17;;;17.53;;
31948;SDS011;18481;49.532;18.334;2023-03-04T21:24:54;29.90;;;17.03;;
31948;SDS011;18481;49.532;18.334;2023-03-04T21:27:20;33.87;;;17.97;;
31948;SDS011;18481;49.532;18.334;2023-03-04T21:29:46;33.03;;;18.40;;
31948;SDS011;18481;49.532;18.334;2023-03-04T21:32:18;25.27;;;16.30;;
31948;SDS011;18481;49.532;18.334;2023-03-04T21:34:47;31.63;;;18.43;;
31948;SDS011;18481;49.532;18.334;2023-03-04T21:37:16;34.17;;;18.80;;
31948;SDS011;18481;49.532;18.334;2023-03-04T21:39:42;29.97;;;16.23;;
31948;SDS011;18481;49.532;18.334;2023-03-04T21:42:08;27.07;;;16.23;;
31948;SDS011;18481;49.532;18.334;2023-03-04T21:44:34;31.87;;;17.70;;
31948;SDS011;18481;49.532;18.334;2023-03-04T21:47:00;31.07;;;18.50;;
31948;SDS011;18481;49.532;18.334;2023-03-04T21:49:26;31.93;;;18.90;;
31948;SDS011;18481;49.532;18.334;2023-03-04T21:51:52;32.10;;;18.93;;
31948;SDS011;18481;49.532;18.334;2023-03-04T21:54:19;31.30;;;18.27;;
31948;SDS011;18481;49.532;18.334;2023-03-04T21:56:45;31.20;;;18.63;;
31948;SDS011;18481;49.532;18.334;2023-03-04T21:59:12;33.47;;;19.20;;
31948;SDS011;18481;49.532;18.334;2023-03-04T22:01:39;33.87;;;18.83;;
31948;SDS011;18481;49.532;18.334;2023-03-04T22:04:05;31.83;;;18.40;;
31948;SDS011;18481;49.532;18.334;2023-03-04T22:06:31;30.60;;;18.03;;
31948;SDS011;18481;49.532;18.334;2023-03-04T22:08:58;29.73;;;17.57;;
31948;SDS011;18481;49.532;18.334;2023-03-04T22:11:25;27.23;;;16.93;;
31948;SDS011;18481;49.532;18.334;2023-03-04T22:13:55;27.57;;;16.33;;
31948;SDS011;18481;49.532;18.334;2023-03-04T22:16:21;29.80;;;17.27;;
31948;SDS011;18481;49.532;18.334;2023-03-04T22:18:48;30.03;;;18.00;;
31948;SDS011;18481;49.532;18.334;2023-03-04T22:21:15;32.03;;;18.47;;
31948;SDS011;18481;49.532;18.334;2023-03-04T22:23:42;30.30;;;17.53;;
31948;SDS011;18481;49.532;18.334;2023-03-04T22:26:10;29.53;;;17.07;;
31948;SDS011;18481;49.532;18.334;2023-03-04T22:28:36;27.63;;;16.73;;
31948;SDS011;18481;49.532;18.334;2023-03-04T22:31:11;28.17;;;16.17;;
31948;SDS011;18481;49.532;18.334;2023-03-04T22:33:37;29.97;;;18.40;;
31948;SDS011;18481;49.532;18.334;2023-03-04T22:36:04;25.13;;;14.90;;
31948;SDS011;18481;49.532;18.334;2023-03-04T22:38:30;31.67;;;18.33;;
31948;SDS011;18481;49.532;18.334;2023-03-04T22:40:56;33.37;;;18.13;;
31948;SDS011;18481;49.532;18.334;2023-03-04T22:43:22;29.27;;;17.77;;
31948;SDS011;18481;49.532;18.334;2023-03-04T22:45:48;29.87;;;17.93;;
31948;SDS011;18481;49.532;18.334;2023-03-04T22:48:14;32.33;;;18.33;;
31948;SDS011;18481;49.532;18.334;2023-03-04T22:50:40;25.83;;;16.03;;
31948;SDS011;18481;49.532;18.334;2023-03-04T22:53:06;30.47;;;17.10;;
31948;SDS011;18481;49.532;18.334;2023-03-04T22:55:33;29.50;;;17.37;;
31948;SDS011;18481;49.532;18.334;2023-03-04T22:58:00;30.67;;;17.57;;
31948;SDS011;18481;49.532;18.334;2023-03-04T23:00:27;33.53;;;17.90;;
31948;SDS011;18481;49.532;18.334;2023-03-04T23:02:54;34.33;;;19.47;;
31948;SDS011;18481;49.532;18.334;2023-03-04T23:05:20;25.93;;;15.87;;
31948;SDS011;18481;49.532;18.334;2023-03-04T23:07:46;30.70;;;18.43;;
31948;SDS011;18481;49.532;18.334;2023-03-04T23:10:14;32.23;;;18.57;;
31948;SDS011;18481;49.532;18.334;2023-03-04T23:12:40;29.33;;;17.30;;
31948;SDS011;18481;49.532;18.334;2023-03-04T23:15:07;31.00;;;18.43;;
31948;SDS011;18481;49.532;18.334;2023-03-04T23:17:33;30.30;;;17.47;;